Time;durP1;ratioP1;P1;durP2;ratioP2;P2;SDS_P1;SDS_P2;PMS_P1;PMS_P2;Temp;Humidity;BMP_temperature;BMP_pressure;BME280_temperature;BME280_humidity;BME280_pressure;Samples;Min_cycle;Max_cycle;Signal;HPM_P1;HPM_P2
2021/12/29 00:00:44;;;;;;;10.15;3.95;;;;;;;4.31;100.00;98925.50;4972134;28;20041;-66
2021/12/29 00:03:10;;;;;;;6.43;3.22;;;;;;;4.35;100.00;98936.22;4970512;28;20244;-67
2021/12/29 00:05:36;;;;;;;9.98;3.10;;;;;;;4.31;100.00;98936.16;4996201;28;20042;-67
2021/12/29 00:08:02;;;;;;;7.47;3.53;;;;;;;4.30;100.00;98939.94;4973766;28;20165;-68
2021/12/29 00:10:28;;;;;;;9.00;3.75;;;;;;;4.29;100.00;98956.28;4988652;28;20043;-67
2021/12/29 00:12:54;;;;;;;9.20;3.47;;;;;;;4.29;100.00;98957.06;4972289;28;20545;-67
2021/12/29 00:15:25;;;;;;;8.30;3.40;;;;;;;4.28;100.00;98958.19;4974496;28;20599;-67
2021/12/29 00:17:51;;;;;;;8.27;3.33;;;;;;;4.27;100.00;98966.53;4958629;28;21331;-67
2021/12/29 00:20:19;;;;;;;12.60;4.25;;;;;;;4.25;100.00;98958.13;4972848;28;20027;-66
2021/12/29 00:22:45;;;;;;;5.95;2.90;;;;;;;4.30;100.00;98974.56;4972117;28;20042;-66
2021/12/29 00:25:12;;;;;;;6.47;3.22;;;;;;;4.26;100.00;98975.63;4972075;28;20045;-66
2021/12/29 00:27:38;;;;;;;6.78;2.60;;;;;;;4.29;100.00;98973.06;4972928;28;20110;-67
2021/12/29 00:30:07;;;;;;;5.88;3.28;;;;;;;4.31;100.00;98983.34;4972884;28;20034;-67
2021/12/29 00:32:51;;;;;;;6.40;3.03;;;;;;;4.38;100.00;98978.13;4970074;28;20597;-67
2021/12/29 00:35:38;;;;;;;9.27;3.22;;;;;;;4.34;100.00;98982.63;4970774;28;20037;-65
2021/12/29 00:38:19;;;;;;;11.88;3.03;;;;;;;4.29;100.00;98988.25;4962824;28;20051;-64
2021/12/29 00:41:03;;;;;;;5.65;2.85;;;;;;;4.32;100.00;98990.19;4972326;28;20344;-66
2021/12/29 00:43:52;;;;;;;4.82;2.83;;;;;;;4.26;100.00;98996.94;4944396;28;20051;-66
2021/12/29 00:46:54;;;;;;;7.63;3.33;;;;;;;4.29;100.00;98989.03;4960589;28;20031;-65
2021/12/29 00:49:30;;;;;;;7.80;3.40;;;;;;;4.28;100.00;98992.03;4973359;28;20035;-67
2021/12/29 00:51:56;;;;;;;9.93;3.53;;;;;;;4.31;100.00;98994.78;4972866;28;20462;-66
2021/12/29 00:54:21;;;;;;;9.63;3.35;;;;;;;4.28;100.00;99003.47;4973451;28;20088;-67
2021/12/29 00:56:47;;;;;;;7.00;4.15;;;;;;;4.34;100.00;99011.94;4973410;28;20440;-67
2021/12/29 00:59:13;;;;;;;7.78;3.58;;;;;;;4.27;100.00;99025.91;4970675;28;20041;-66
2021/12/29 01:01:39;;;;;;;8.98;3.95;;;;;;;4.25;100.00;99030.03;4987799;28;20487;-67
2021/12/29 01:04:04;;;;;;;7.95;3.67;;;;;;;4.23;100.00;99034.94;4984151;28;20038;-66
2021/12/29 01:06:30;;;;;;;14.20;2.92;;;;;;;4.21;100.00;99035.31;4971615;28;20170;-66
2021/12/29 01:08:55;;;;;;;7.15;3.40;;;;;;;4.21;100.00;99037.97;4986322;23;20045;-67
2021/12/29 01:11:22;;;;;;;9.05;3.20;;;;;;;4.20;100.00;99047.06;4994183;28;20088;-66
2021/12/29 01:13:48;;;;;;;8.90;3.35;;;;;;;4.21;100.00;99047.84;4995143;28;20038;-66
2021/12/29 01:16:36;;;;;;;7.22;3.20;;;;;;;4.21;100.00;99053.16;4990599;28;20061;-67
2021/12/29 01:19:22;;;;;;;6.22;3.00;;;;;;;4.24;100.00;99061.22;4976092;28;20163;-66
2021/12/29 01:21:51;;;;;;;11.50;3.78;;;;;;;4.25;100.00;99068.09;4986876;28;20125;-66
2021/12/29 01:24:18;;;;;;;7.25;3.50;;;;;;;4.26;100.00;99066.19;4963637;28;20034;-67
2021/12/29 01:26:44;;;;;;;9.05;3.65;;;;;;;4.24;100.00;99071.88;4972033;28;20045;-67
2021/12/29 01:29:14;;;;;;;9.20;3.78;;;;;;;4.23;100.00;99081.00;4979582;28;20050;-67
2021/12/29 01:31:40;;;;;;;5.60;3.22;;;;;;;4.24;100.00;99087.13;4963820;28;20027;-67
2021/12/29 01:34:06;;;;;;;5.80;2.45;;;;;;;4.25;100.00;99097.41;4971665;28;20115;-66
2021/12/29 01:36:33;;;;;;;7.93;3.50;;;;;;;4.24;100.00;99100.44;4962009;28;20502;-66
2021/12/29 01:38:59;;;;;;;8.70;3.35;;;;;;;4.24;100.00;99103.09;4963356;28;20149;-67
2021/12/29 01:41:25;;;;;;;7.65;3.60;;;;;;;4.24;100.00;99105.75;4982494;28;20026;-66
2021/12/29 01:43:54;;;;;;;8.80;3.70;;;;;;;4.27;100.00;99111.16;4981060;28;20045;-66
2021/12/29 01:46:20;;;;;;;8.43;3.40;;;;;;;4.24;100.00;99109.16;4979130;28;20115;-66
2021/12/29 01:48:48;;;;;;;8.45;3.95;;;;;;;4.22;100.00;99116.00;4967943;28;20499;-67
2021/12/29 01:51:17;;;;;;;10.93;3.42;;;;;;;4.22;100.00;99105.34;4960662;28;20039;-66
2021/12/29 01:53:48;;;;;;;7.00;3.35;;;;;;;4.24;100.00;99114.50;4961203;28;20038;-66
2021/12/29 01:56:15;;;;;;;8.57;2.72;;;;;;;4.24;100.00;99113.75;4985502;28;20074;-66
2021/12/29 01:58:41;;;;;;;13.55;3.70;;;;;;;4.24;100.00;99121.75;4985450;28;20037;-66
2021/12/29 02:01:06;;;;;;;8.50;3.80;;;;;;;4.24;100.00;99127.06;4968920;28;20035;-67
2021/12/29 02:03:32;;;;;;;10.38;3.33;;;;;;;4.22;100.00;99134.63;4962254;28;20045;-65
2021/12/29 02:05:58;;;;;;;7.30;2.47;;;;;;;4.20;100.00;99136.88;4961261;28;20114;-66
2021/12/29 02:08:24;;;;;;;6.05;2.75;;;;;;;4.21;100.00;99139.19;4951017;28;20039;-66
2021/12/29 02:10:56;;;;;;;10.27;3.42;;;;;;;4.23;100.00;99138.84;4950704;28;20043;-67
2021/12/29 02:13:23;;;;;;;8.63;3.80;;;;;;;4.22;100.00;99134.63;4969410;28;20038;-65
2021/12/29 02:15:48;;;;;;;6.38;2.53;;;;;;;4.20;100.00;99142.97;4979822;28;20509;-66
2021/12/29 02:18:16;;;;;;;12.45;3.97;;;;;;;4.20;100.00;99137.63;4986082;28;20069;-66
2021/12/29 02:20:47;;;;;;;9.05;3.22;;;;;;;4.34;100.00;99147.81;4969107;28;20129;-66
2021/12/29 02:23:46;;;;;;;6.07;2.42;;;;;;;4.26;100.00;99146.88;4966572;28;20503;-66
2021/12/29 02:26:05;;;;;;;9.68;3.20;;;;;;;4.27;100.00;99148.44;4969416;28;20038;-66
2021/12/29 02:28:34;;;;;;;12.40;3.90;;;;;;;4.30;100.00;99155.72;4980665;28;20050;-66
2021/12/29 02:31:00;;;;;;;10.57;3.03;;;;;;;4.24;100.00;99151.78;4970726;28;20057;-67
2021/12/29 02:33:30;;;;;;;7.57;2.78;;;;;;;4.21;100.00;99155.16;4973467;28;20045;-66
2021/12/29 02:35:55;;;;;;;8.00;3.20;;;;;;;4.20;100.00;99163.50;4966126;28;20035;-67
2021/12/29 02:38:22;;;;;;;10.98;3.08;;;;;;;4.18;100.00;99161.19;4982119;28;20491;-65
2021/12/29 02:40:53;;;;;;;8.25;3.30;;;;;;;4.18;100.00;99166.50;4969453;28;20070;-66
2021/12/29 02:43:21;;;;;;;6.28;3.28;;;;;;;4.17;100.00;99174.84;4974579;28;20562;-67
2021/12/29 02:45:50;;;;;;;6.30;3.25;;;;;;;4.20;100.00;99176.84;4960159;28;20058;-66
2021/12/29 02:48:17;;;;;;;10.13;4.20;;;;;;;4.22;100.00;99172.69;4974495;28;20034;-67
2021/12/29 02:50:44;;;;;;;8.32;3.22;;;;;;;4.19;100.00;99177.94;4968748;28;20070;-67
2021/12/29 02:53:12;;;;;;;8.02;3.20;;;;;;;4.21;100.00;99179.13;4970885;28;20066;-66
2021/12/29 02:55:38;;;;;;;11.52;3.90;;;;;;;4.23;100.00;99192.09;4977849;28;20088;-67
2021/12/29 02:58:07;;;;;;;9.07;3.38;;;;;;;4.20;100.00;99190.91;4977547;28;20500;-66
2021/12/29 03:00:32;;;;;;;9.40;3.15;;;;;;;4.22;100.00;99203.91;4984988;28;20522;-66
2021/12/29 03:02:58;;;;;;;8.43;3.67;;;;;;;4.27;100.00;99207.06;4964526;28;20039;-66
2021/12/29 03:05:26;;;;;;;5.35;3.00;;;;;;;4.26;100.00;99204.72;4969948;28;20058;-65
2021/12/29 03:07:54;;;;;;;6.07;2.78;;;;;;;4.21;100.00;99197.78;4954491;28;20088;-66
2021/12/29 03:10:22;;;;;;;9.60;3.65;;;;;;;4.21;100.00;99205.78;4968578;28;20042;-65
2021/12/29 03:12:47;;;;;;;11.10;3.15;;;;;;;4.20;100.00;99204.22;4981624;28;20105;-66
2021/12/29 03:15:13;;;;;;;8.82;3.80;;;;;;;4.21;100.00;99215.66;4967287;28;20122;-66
2021/12/29 03:17:38;;;;;;;7.35;3.17;;;;;;;4.22;100.00;99217.22;4978601;28;20034;-66
2021/12/29 03:20:04;;;;;;;9.80;3.10;;;;;;;4.29;100.00;99212.81;4990891;28;20045;-67
2021/12/29 03:22:33;;;;;;;11.13;4.18;;;;;;;4.32;100.00;99220.09;4968520;28;20039;-67
2021/12/29 03:24:58;;;;;;;11.27;4.03;;;;;;;4.31;100.00;99228.44;4971150;28;20460;-67
2021/12/29 03:27:23;;;;;;;6.95;3.17;;;;;;;4.22;100.00;99241.19;4977442;28;20120;-66
2021/12/29 03:29:49;;;;;;;12.35;5.15;;;;;;;4.19;100.00;99239.19;4991306;28;20176;-66
2021/12/29 03:32:22;;;;;;;9.90;3.60;;;;;;;4.17;100.00;99247.53;4957378;28;20097;-66
2021/12/29 03:34:48;;;;;;;13.75;3.40;;;;;;;4.20;100.00;99243.44;4990715;28;20118;-67
2021/12/29 03:37:13;;;;;;;8.10;3.65;;;;;;;4.17;100.00;99244.09;4964620;28;20125;-66
2021/12/29 03:39:39;;;;;;;14.05;3.45;;;;;;;4.14;100.00;99245.56;4973052;28;20042;-66
2021/12/29 03:42:07;;;;;;;10.95;3.88;;;;;;;4.17;100.00;99260.84;4989331;28;20030;-65
2021/12/29 03:44:33;;;;;;;9.50;3.65;;;;;;;4.31;100.00;99261.19;4977265;28;20385;-66
2021/12/29 03:46:59;;;;;;;15.15;3.58;;;;;;;4.23;100.00;99267.47;4968828;28;20515;-66
2021/12/29 03:49:24;;;;;;;12.15;4.18;;;;;;;4.22;100.00;99265.91;4979094;28;20122;-66
2021/12/29 03:51:50;;;;;;;10.77;3.83;;;;;;;4.20;100.00;99270.06;4970444;28;20034;-66
2021/12/29 03:54:15;;;;;;;9.60;3.97;;;;;;;4.18;100.00;99274.97;4971180;28;20117;-66
2021/12/29 03:56:41;;;;;;;8.30;3.15;;;;;;;4.18;100.00;99283.69;4987889;28;20042;-66
2021/12/29 03:59:06;;;;;;;8.25;2.78;;;;;;;4.18;100.00;99283.69;4982238;28;20178;-66
2021/12/29 04:01:32;;;;;;;9.68;3.47;;;;;;;4.18;100.00;99281.03;4974199;28;20041;-67
2021/12/29 04:03:57;;;;;;;12.65;3.40;;;;;;;4.19;100.00;99276.50;4976286;28;20585;-66
2021/12/29 04:06:23;;;;;;;9.10;3.25;;;;;;;4.18;100.00;99293.59;4984307;28;20140;-66
2021/12/29 04:08:49;;;;;;;9.57;3.83;;;;;;;4.18;100.00;99288.28;4968084;28;20062;-67
2021/12/29 04:11:15;;;;;;;9.32;3.25;;;;;;;4.18;100.00;99297.03;4986386;28;20128;-68
2021/12/29 04:13:43;;;;;;;9.73;3.65;;;;;;;4.20;100.00;99291.38;4978267;28;20062;-70
2021/12/29 04:16:15;;;;;;;10.45;2.92;;;;;;;4.19;100.00;99290.59;4969498;28;20033;-66
2021/12/29 04:18:55;;;;;;;7.10;3.08;;;;;;;4.19;100.00;99293.25;4959988;28;20039;-66
2021/12/29 04:21:20;;;;;;;8.52;3.50;;;;;;;4.26;100.00;99290.75;4964817;28;20042;-67
2021/12/29 04:23:46;;;;;;;16.15;3.83;;;;;;;4.24;100.00;99294.88;4970251;28;20624;-66
2021/12/29 04:26:11;;;;;;;12.80;4.47;;;;;;;4.22;100.00;99289.13;4987696;28;20450;-65
2021/12/29 04:28:40;;;;;;;11.10;3.95;;;;;;;4.22;100.00;99287.22;4969809;28;20038;-66
2021/12/29 04:31:08;;;;;;;10.65;3.92;;;;;;;4.28;100.00;99287.72;4972035;28;20521;-66
2021/12/29 04:33:36;;;;;;;8.57;3.42;;;;;;;4.28;100.00;99301.03;4968690;28;20508;-65
2021/12/29 04:36:02;;;;;;;14.05;4.75;;;;;;;4.23;100.00;99301.31;4976813;28;20034;-67
2021/12/29 04:38:27;;;;;;;8.90;3.63;;;;;;;4.27;100.00;99323.50;4978957;28;20034;-67
2021/12/29 04:40:55;;;;;;;13.18;3.78;;;;;;;4.29;100.00;99326.59;4982976;28;20986;-65
2021/12/29 04:43:22;;;;;;;10.65;3.58;;;;;;;4.32;100.00;99344.53;4969722;28;20030;-65
2021/12/29 04:45:48;;;;;;;6.47;3.65;;;;;;;4.33;100.00;99336.22;4969336;28;20361;-66
2021/12/29 04:48:15;;;;;;;9.35;3.45;;;;;;;4.31;100.00;99357.09;4986986;28;20070;-67
2021/12/29 04:50:49;;;;;;;9.98;3.42;;;;;;;4.27;100.00;99364.22;4969219;28;20043;-66
2021/12/29 04:53:15;;;;;;;8.00;3.25;;;;;;;4.25;100.00;99368.34;4989392;28;20031;-65
2021/12/29 04:55:45;;;;;;;8.93;3.72;;;;;;;4.22;100.00;99371.72;4990503;28;20030;-66
2021/12/29 04:58:12;;;;;;;6.07;2.72;;;;;;;4.23;100.00;99382.00;4957299;28;20047;-65
2021/12/29 05:00:38;;;;;;;11.02;4.78;;;;;;;4.20;100.00;99372.03;4986165;28;20044;-66
2021/12/29 05:03:04;;;;;;;12.40;4.63;;;;;;;4.19;100.00;99375.81;4981821;28;20026;-66
2021/12/29 05:10:40;;;;;;;12.32;3.25;;;;;;;4.21;100.00;99381.59;4971080;28;20121;-66
2021/12/29 05:13:05;;;;;;;7.18;3.35;;;;;;;4.21;100.00;99384.25;4989139;28;20122;-66
2021/12/29 05:15:32;;;;;;;10.70;3.88;;;;;;;4.24;100.00;99390.78;4969478;28;20062;-66
2021/12/29 05:17:58;;;;;;;13.55;4.35;;;;;;;4.23;100.00;99383.91;4986808;28;20038;-65
2021/12/29 05:20:29;;;;;;;15.65;3.78;;;;;;;4.24;100.00;99382.81;4983638;28;20100;-67
2021/12/29 05:22:57;;;;;;;11.52;3.65;;;;;;;4.29;100.00;99383.31;4976396;28;20081;-66
2021/12/29 05:25:22;;;;;;;10.77;3.55;;;;;;;4.30;100.00;99389.38;4956374;28;20046;-66
2021/12/29 05:27:49;;;;;;;6.63;3.28;;;;;;;4.26;100.00;99383.19;4974445;28;20038;-66
2021/12/29 05:30:14;;;;;;;10.98;3.45;;;;;;;4.23;100.00;99386.56;4982847;28;20042;-68
2021/12/29 05:32:40;;;;;;;11.15;3.88;;;;;;;4.21;100.00;99383.47;4979672;28;20477;-66
2021/12/29 05:35:06;;;;;;;13.18;3.95;;;;;;;4.21;100.00;99399.44;4986882;28;20033;-66
2021/12/29 05:37:32;;;;;;;11.50;3.15;;;;;;;4.24;100.00;99396.88;4981746;28;20044;-67
2021/12/29 05:39:57;;;;;;;11.98;4.78;;;;;;;4.24;100.00;99406.78;4975202;28;20043;-66
2021/12/29 05:42:23;;;;;;;10.70;3.40;;;;;;;4.23;100.00;99407.88;4975472;28;20042;-66
2021/12/29 05:44:48;;;;;;;6.50;2.90;;;;;;;4.31;100.00;99422.91;4974221;28;20463;-66
2021/12/29 05:47:14;;;;;;;8.30;3.97;;;;;;;4.35;100.00;99426.44;4983164;28;20047;-67
2021/12/29 05:49:39;;;;;;;13.52;3.92;;;;;;;4.31;100.00;99431.69;4978131;28;20089;-66
2021/12/29 05:52:05;;;;;;;8.45;3.25;;;;;;;4.25;100.00;99435.72;4989013;28;20050;-66
2021/12/29 05:54:32;;;;;;;6.50;2.97;;;;;;;4.24;100.00;99441.41;4961777;28;20031;-66
2021/12/29 05:56:58;;;;;;;9.63;3.95;;;;;;;4.35;100.00;99429.13;4969968;28;20038;-67
2021/12/29 05:59:23;;;;;;;9.23;3.65;;;;;;;4.26;100.00;99426.59;4971430;28;20526;-66
2021/12/29 06:01:48;;;;;;;10.43;4.35;;;;;;;4.27;100.00;99425.50;4963514;28;20027;-66
2021/12/29 06:04:14;;;;;;;9.68;4.55;;;;;;;4.25;100.00;99433.06;4971132;28;20033;-67
2021/12/29 06:06:39;;;;;;;10.25;4.15;;;;;;;4.27;100.00;99430.06;4969044;28;20049;-67
2021/12/29 06:09:05;;;;;;;7.90;3.13;;;;;;;4.25;100.00;99434.94;4971002;28;20043;-66
2021/12/29 06:11:30;;;;;;;10.38;3.55;;;;;;;4.22;100.00;99440.97;4979719;28;20501;-66
2021/12/29 06:13:56;;;;;;;12.48;4.03;;;;;;;4.25;100.00;99442.94;4965078;28;20035;-65
2021/12/29 06:16:21;;;;;;;10.10;3.88;;;;;;;4.24;100.00;99457.38;4967909;28;20049;-65
2021/12/29 06:18:47;;;;;;;9.23;4.45;;;;;;;4.23;100.00;99459.28;4982319;28;20100;-66
2021/12/29 06:21:16;;;;;;;13.85;3.58;;;;;;;4.29;100.00;99459.78;4970266;28;20039;-66
2021/12/29 06:23:47;;;;;;;12.07;4.28;;;;;;;4.29;100.00;99459.78;4967233;28;20038;-66
2021/12/29 06:26:13;;;;;;;7.50;3.03;;;;;;;4.35;100.00;99453.09;4968829;28;20047;-66
2021/12/29 06:28:39;;;;;;;9.20;3.67;;;;;;;4.35;100.00;99461.09;4961123;28;20045;-67
2021/12/29 06:31:05;;;;;;;13.52;4.72;;;;;;;4.36;100.00;99459.97;4968724;28;20035;-67
2021/12/29 06:33:31;;;;;;;8.82;3.28;;;;;;;4.31;100.00;99478.88;4965513;28;20031;-67
2021/12/29 06:35:56;;;;;;;13.35;4.85;;;;;;;4.28;100.00;99474.22;4969879;28;20250;-66
2021/12/29 06:38:22;;;;;;;13.00;3.88;;;;;;;4.27;100.00;99480.66;4963879;28;20138;-66
2021/12/29 06:40:48;;;;;;;9.95;3.53;;;;;;;4.27;100.00;99486.78;4965660;28;20030;-67
2021/12/29 06:43:14;;;;;;;10.35;4.10;;;;;;;4.31;100.00;99492.97;4970356;28;20065;-65
2021/12/29 06:45:39;;;;;;;9.57;4.32;;;;;;;4.33;100.00;99492.63;4955830;28;20022;-66
2021/12/29 06:48:05;;;;;;;8.32;3.88;;;;;;;4.33;100.00;99493.41;4972889;28;20495;-66
2021/12/29 06:50:32;;;;;;;10.52;4.63;;;;;;;4.29;100.00;99489.09;4956610;28;20566;-66
2021/12/29 06:52:57;;;;;;;8.65;3.85;;;;;;;4.29;100.00;99499.75;4949500;28;20039;-66
2021/12/29 06:55:25;;;;;;;12.30;4.38;;;;;;;4.30;100.00;99498.63;4951540;28;20023;-64
2021/12/29 06:57:51;;;;;;;10.50;3.95;;;;;;;4.31;100.00;99500.97;4957765;28;20030;-67
2021/12/29 07:00:17;;;;;;;8.90;3.58;;;;;;;4.33;100.00;99508.63;4959145;28;20046;-64
2021/12/29 07:02:46;;;;;;;8.88;4.28;;;;;;;4.30;100.00;99511.94;4960681;28;20889;-66
2021/12/29 07:05:15;;;;;;;8.45;4.60;;;;;;;4.30;100.00;99517.28;4964032;28;20111;-65
2021/12/29 07:07:42;;;;;;;9.60;4.03;;;;;;;4.28;100.00;99520.28;4965755;28;20054;-66
2021/12/29 07:10:08;;;;;;;13.05;4.30;;;;;;;4.27;100.00;99536.63;4993128;22;20422;-67
2021/12/29 07:12:33;;;;;;;16.80;4.72;;;;;;;4.28;100.00;99538.94;4988239;28;20038;-67
2021/12/29 07:14:59;;;;;;;11.85;3.60;;;;;;;4.26;100.00;99549.16;4983117;28;20045;-67
2021/12/29 07:17:24;;;;;;;8.77;2.92;;;;;;;4.26;100.00;99556.38;4980783;28;20037;-67
2021/12/29 07:19:50;;;;;;;11.52;4.70;;;;;;;4.25;100.00;99557.50;4984413;28;20042;-68
2021/12/29 07:22:16;;;;;;;18.30;4.10;;;;;;;4.25;100.00;99562.81;4976594;28;20027;-67
2021/12/29 07:24:42;;;;;;;11.10;3.42;;;;;;;4.25;100.00;99579.59;4976577;28;20041;-67
2021/12/29 07:27:07;;;;;;;14.90;5.38;;;;;;;4.25;100.00;99576.13;4986919;28;20185;-67
2021/12/29 07:29:33;;;;;;;13.38;4.63;;;;;;;4.27;100.00;99584.56;4986289;28;20493;-67
2021/12/29 07:31:59;;;;;;;10.73;3.92;;;;;;;4.27;100.00;99596.00;4982172;28;20034;-67
2021/12/29 07:34:25;;;;;;;12.93;4.07;;;;;;;4.29;100.00;99609.78;4983813;28;20034;-67
2021/12/29 07:36:51;;;;;;;10.82;4.15;;;;;;;4.43;100.00;99604.06;4983380;28;20120;-68
2021/12/29 07:39:17;;;;;;;12.32;4.15;;;;;;;4.51;100.00;99611.88;4980278;28;20398;-68
2021/12/29 07:41:44;;;;;;;10.77;4.10;;;;;;;4.52;100.00;99620.66;4979716;28;20034;-68
2021/12/29 07:44:17;;;;;;;12.07;4.25;;;;;;;4.62;100.00;99622.84;4996285;28;20134;-68
2021/12/29 07:46:44;;;;;;;11.13;4.07;;;;;;;4.56;100.00;99638.31;4982517;28;20038;-67
2021/12/29 07:49:10;;;;;;;8.82;4.18;;;;;;;4.70;100.00;99640.59;4973142;28;20089;-67
2021/12/29 07:51:35;;;;;;;12.40;4.55;;;;;;;4.73;100.00;99639.13;4978149;28;20038;-67
2021/12/29 07:54:01;;;;;;;9.52;5.00;;;;;;;4.71;100.00;99662.66;4976005;28;20081;-68
2021/12/29 07:56:27;;;;;;;12.77;4.85;;;;;;;4.75;100.00;99664.31;4980300;28;20061;-68
2021/12/29 07:58:52;;;;;;;14.30;5.22;;;;;;;4.81;100.00;99678.97;4982625;28;20038;-68
2021/12/29 08:03:52;;;;;;;10.23;3.80;;;;;;;4.75;100.00;99680.31;4958029;28;20062;-65
2021/12/29 08:06:19;;;;;;;8.93;4.28;;;;;;;4.79;100.00;99686.53;4991267;28;20039;-65
2021/12/29 08:08:44;;;;;;;14.25;4.68;;;;;;;4.78;100.00;99678.88;4993718;28;20073;-66
2021/12/29 08:11:10;;;;;;;12.15;5.25;;;;;;;4.76;100.00;99686.44;4987525;28;20065;-66
2021/12/29 08:13:36;;;;;;;9.15;3.42;;;;;;;4.80;100.00;99681.97;4972896;28;20038;-64
2021/12/29 08:16:01;;;;;;;12.57;4.63;;;;;;;4.84;100.00;99683.63;5000478;23;21186;-66
2021/12/29 08:18:26;;;;;;;10.68;3.88;;;;;;;4.67;100.00;99699.91;4993049;28;20038;-67
2021/12/29 08:20:52;;;;;;;13.20;4.15;;;;;;;4.68;100.00;99690.81;4991239;28;20262;-67
2021/12/29 08:23:18;;;;;;;17.58;5.00;;;;;;;4.89;100.00;99693.28;4990690;28;20042;-66
2021/12/29 08:25:43;;;;;;;9.52;4.32;;;;;;;4.86;100.00;99689.38;4990686;28;20041;-67
2021/12/29 08:28:09;;;;;;;10.93;3.70;;;;;;;4.69;100.00;99695.00;4993085;28;20098;-66
2021/12/29 08:30:35;;;;;;;13.88;4.68;;;;;;;4.73;100.00;99692.44;4988340;28;20027;-66
2021/12/29 08:33:00;;;;;;;14.05;4.25;;;;;;;4.75;100.00;99707.00;4992445;28;20038;-66
2021/12/29 08:35:27;;;;;;;7.88;3.97;;;;;;;4.65;100.00;99696.81;4992505;28;20040;-68
2021/12/29 08:37:53;;;;;;;11.45;4.18;;;;;;;4.63;100.00;99698.28;4991303;28;20121;-66
2021/12/29 08:40:19;;;;;;;12.60;4.22;;;;;;;4.59;100.00;99693.59;4993167;28;20042;-66
2021/12/29 08:42:46;;;;;;;12.93;5.38;;;;;;;4.62;100.00;99694.81;4992514;28;20037;-69
2021/12/29 08:45:13;;;;;;;13.43;4.50;;;;;;;4.60;100.00;99697.06;4992892;28;20046;-69
2021/12/29 08:47:40;;;;;;;10.63;4.63;;;;;;;4.64;100.00;99697.94;4985887;28;20033;-68
2021/12/29 08:50:09;;;;;;;12.50;4.47;;;;;;;4.73;100.00;99692.44;4992408;28;20040;-69
2021/12/29 08:52:35;;;;;;;14.85;4.57;;;;;;;4.69;100.00;99692.34;4986460;28;20041;-66
2021/12/29 08:55:02;;;;;;;14.90;4.57;;;;;;;4.69;100.00;99694.22;4993093;28;20084;-66
2021/12/29 08:57:28;;;;;;;14.18;5.93;;;;;;;4.68;100.00;99695.34;4992767;28;20034;-66
2021/12/29 08:59:54;;;;;;;13.80;4.93;;;;;;;4.71;100.00;99700.78;4990842;28;20038;-66
2021/12/29 09:02:19;;;;;;;19.77;5.75;;;;;;;4.70;100.00;99711.78;4987925;28;20042;-66
2021/12/29 09:04:44;;;;;;;12.77;4.18;;;;;;;4.68;100.00;99716.69;4992939;28;20034;-66
2021/12/29 09:07:10;;;;;;;12.30;4.97;;;;;;;4.71;100.00;99718.66;4992915;28;20042;-66
2021/12/29 09:09:35;;;;;;;13.15;4.60;;;;;;;4.68;100.00;99728.13;4986905;28;20400;-66
2021/12/29 09:12:01;;;;;;;17.45;4.78;;;;;;;4.66;100.00;99726.91;5003883;28;20110;-69
2021/12/29 09:14:26;;;;;;;18.73;4.53;;;;;;;4.67;100.00;99720.44;4993120;28;20752;-66
2021/12/29 09:16:54;;;;;;;10.25;4.25;;;;;;;4.67;100.00;99726.56;4992692;28;20499;-66
2021/12/29 09:19:22;;;;;;;10.75;3.97;;;;;;;4.75;100.00;99723.00;4995726;28;20044;-66
2021/12/29 09:21:52;;;;;;;12.98;5.50;;;;;;;4.77;100.00;99733.31;5006570;28;20041;-66
2021/12/29 09:24:17;;;;;;;14.50;4.60;;;;;;;4.82;100.00;99728.50;4991705;28;20093;-66
2021/12/29 09:26:43;;;;;;;8.73;4.57;;;;;;;4.78;100.00;99732.97;4992516;28;20034;-66
2021/12/29 09:29:08;;;;;;;7.80;3.80;;;;;;;4.76;100.00;99740.56;4992527;28;20030;-66
2021/12/29 09:31:34;;;;;;;12.88;4.22;;;;;;;4.81;100.00;99734.97;4982130;28;20025;-67
2021/12/29 09:33:59;;;;;;;13.57;4.13;;;;;;;4.80;100.00;99737.97;4990271;28;20024;-68
2021/12/29 09:36:24;;;;;;;8.98;4.25;;;;;;;4.86;100.00;99739.31;4992461;28;20034;-67
2021/12/29 09:38:50;;;;;;;8.27;3.17;;;;;;;4.95;100.00;99738.03;4989522;28;20084;-66
2021/12/29 09:41:22;;;;;;;14.60;4.85;;;;;;;4.99;100.00;99749.59;4984840;28;20042;-67
2021/12/29 09:43:48;;;;;;;10.88;4.63;;;;;;;4.98;100.00;99764.03;4991768;28;20422;-66
2021/12/29 09:46:14;;;;;;;9.60;4.47;;;;;;;5.04;100.00;99769.88;4991626;28;20030;-66
2021/12/29 09:48:41;;;;;;;20.33;4.38;;;;;;;5.00;100.00;99764.47;4988531;28;20048;-66
2021/12/29 09:51:11;;;;;;;11.65;4.88;;;;;;;4.96;100.00;99771.59;4989645;28;20049;-66
2021/12/29 09:53:37;;;;;;;12.13;4.40;;;;;;;5.05;100.00;99766.13;4990396;28;20042;-66
2021/12/29 09:56:03;;;;;;;13.60;4.05;;;;;;;5.05;100.00;99763.44;4990467;28;20126;-68
2021/12/29 09:58:28;;;;;;;10.82;4.10;;;;;;;5.00;100.00;99764.47;4992173;28;20105;-69
2021/12/29 10:00:59;;;;;;;12.57;3.97;;;;;;;4.96;100.00;99760.13;4991652;28;20466;-69
2021/12/29 10:03:26;;;;;;;8.30;3.00;;;;;;;5.07;100.00;99761.97;4979861;28;20575;-66
2021/12/29 10:05:56;;;;;;;12.73;3.85;;;;;;;5.03;100.00;99760.34;4991065;28;20125;-67
2021/12/29 10:08:28;;;;;;;12.05;4.03;;;;;;;4.99;100.00;99749.59;5006879;28;20034;-67
2021/12/29 10:11:01;;;;;;;9.77;4.15;;;;;;;5.06;100.00;99757.78;5007182;28;20045;-67
2021/12/29 10:13:32;;;;;;;14.15;4.85;;;;;;;5.06;100.00;99756.97;4986630;28;20037;-67
2021/12/29 10:16:06;;;;;;;10.00;3.88;;;;;;;5.04;100.00;99760.00;4990352;28;20030;-67
2021/12/29 10:18:34;;;;;;;17.88;5.35;;;;;;;5.00;100.00;99759.13;4992032;28;20117;-67
2021/12/29 10:21:05;;;;;;;14.15;5.07;;;;;;;4.99;100.00;99765.59;4990048;28;20062;-67
2021/12/29 10:23:39;;;;;;;12.20;4.80;;;;;;;5.07;100.00;99772.66;4985688;28;20102;-66
2021/12/29 10:26:10;;;;;;;14.00;4.53;;;;;;;5.00;100.00;99771.69;4971919;28;20046;-66
2021/12/29 10:28:40;;;;;;;8.73;4.50;;;;;;;5.04;100.00;99786.69;4981852;28;20073;-67
2021/12/29 10:31:19;;;;;;;22.35;6.40;;;;;;;5.15;100.00;99798.41;4991780;28;20398;-66
2021/12/29 10:33:48;;;;;;;12.32;4.47;;;;;;;5.16;100.00;99804.53;4989942;28;20799;-66
2021/12/29 10:36:36;;;;;;;14.30;3.97;;;;;;;5.09;100.00;99809.69;4990618;28;20036;-66
2021/12/29 10:39:06;;;;;;;11.90;4.22;;;;;;;5.23;100.00;99805.50;4979467;28;20054;-66
2021/12/29 10:41:43;;;;;;;7.88;3.80;;;;;;;5.23;100.00;99808.16;4990528;28;20048;-66
2021/12/29 10:44:09;;;;;;;14.38;5.05;;;;;;;5.33;100.00;99802.34;4991419;28;20049;-67
2021/12/29 10:46:34;;;;;;;16.13;5.68;;;;;;;5.42;100.00;99788.84;4986772;28;20030;-67
2021/12/29 10:49:04;;;;;;;12.00;3.97;;;;;;;5.42;100.00;99784.28;4991211;28;20557;-66
2021/12/29 10:51:35;;;;;;;13.00;4.70;;;;;;;5.34;100.00;99787.88;4990824;28;20048;-67
2021/12/29 10:54:16;;;;;;;19.88;5.15;;;;;;;5.24;100.00;99783.06;4980846;28;20081;-69
2021/12/29 10:56:45;;;;;;;12.70;4.38;;;;;;;5.21;100.00;99788.28;4991090;28;20118;-67
2021/12/29 10:59:12;;;;;;;12.38;5.90;;;;;;;5.27;100.00;99795.69;4990696;28;20034;-67
2021/12/29 11:01:41;;;;;;;8.73;4.40;;;;;;;5.29;100.00;99800.69;4990563;28;20394;-66
2021/12/29 11:04:10;;;;;;;11.48;4.75;;;;;;;5.26;100.00;99812.06;4980758;28;20026;-66
2021/12/29 11:06:40;;;;;;;16.20;5.13;;;;;;;5.27;100.00;99814.38;4991097;28;20129;-67
2021/12/29 11:09:06;;;;;;;14.05;4.93;;;;;;;5.37;100.00;99799.78;4990999;28;20034;-67
2021/12/29 11:11:40;;;;;;;17.60;5.38;;;;;;;5.30;100.00;99797.69;4989098;28;20352;-66
2021/12/29 11:14:28;;;;;;;12.23;4.95;;;;;;;5.25;100.00;99797.94;4987334;28;20117;-67
2021/12/29 11:17:15;;;;;;;16.42;5.78;;;;;;;5.27;100.00;99795.69;4989349;28;20048;-67
2021/12/29 11:19:53;;;;;;;19.98;5.95;;;;;;;5.31;100.00;99798.47;4990994;28;20046;-67
2021/12/29 11:22:23;;;;;;;12.00;4.60;;;;;;;5.29;100.00;99806.81;4987232;28;20038;-67
2021/12/29 11:24:55;;;;;;;17.05;5.22;;;;;;;5.30;100.00;99811.03;4989283;28;20093;-67
2021/12/29 11:27:21;;;;;;;13.65;5.05;;;;;;;5.32;100.00;99816.78;4990718;28;20444;-67
2021/12/29 11:29:52;;;;;;;15.98;5.03;;;;;;;5.37;100.00;99799.78;4989027;28;20030;-67
2021/12/29 11:32:23;;;;;;;;;;;;;;;5.37;100.00;99783.75;4989251;28;20037;-68
2021/12/29 11:35:00;;;;;;;10.75;4.47;;;;;;;5.39;100.00;99806.34;4994156;28;20004;-67
2021/12/29 11:37:26;;;;;;;14.95;4.28;;;;;;;5.42;100.00;99810.97;4994263;28;20034;-68
2021/12/29 11:39:51;;;;;;;11.15;5.00;;;;;;;5.43;100.00;99801.88;4993347;28;20038;-67